KEGE/EGE METAR and TAF weather

Enter ICAO airport designator
Station Type Date Time Source
KEGE METAR 2021/09/25 03:56 UTC NOAA

KEGE 250356Z AUTO 11004KT 10SM CLR 14/M04 A3030 RMK AO2 SLP230 T01391044 PNO $


Station Type Date Time Source
KEGE Decoded METAR 2021/09/25 03:56 UTC NOAA

Eagle County Regional, CO, United States (KEGE) 39-39N 106-55W
Sep 24, 2021 - 11:56 PM EDT / 2021.09.25 0356 UTC
Wind: from the ESE (110 degrees) at 5 MPH (4 KT):0
Visibility: 10 mile(s):0
Sky conditions: clear
Temperature: 57.0 F (13.9 C)
Dew Point: 24.1 F (-4.4 C)
Relative Humidity: 27%
Pressure (altimeter): 30.3 in. Hg (1026 hPa)
ob: KEGE 250356Z AUTO 11004KT 10SM CLR 14/M04 A3030 RMK AO2 SLP230 T01391044 PNO
cycle: 4

Station Type Date Time Source
KEGE TAF 2021/09/24 18:22 UTC NOAA

TAF KEGE 241720Z 2418/2518 25003KT P6SM SKC
FM242000 27008KT P6SM SKC
FM250200 08006KT P6SM SKC
FM250500 VRB02KT P6SM FEW250

Example: see airport list